sensor_id;sensor_type;location;lat;lon;timestamp;temperature;humidity
935;DHT22;454;53.254;10.400;2022-09-20T04:01:42;7.90;99.90
935;DHT22;454;53.254;10.400;2022-09-20T04:04:23;7.80;99.90
935;DHT22;454;53.254;10.400;2022-09-20T04:07:08;7.80;99.90
935;DHT22;454;53.254;10.400;2022-09-20T04:09:50;7.80;99.90
935;DHT22;454;53.254;10.400;2022-09-20T04:12:28;7.80;99.90
935;DHT22;454;53.254;10.400;2022-09-20T04:15:04;7.80;99.90
935;DHT22;454;53.254;10.400;2022-09-20T04:17:44;7.80;99.90
935;DHT22;454;53.254;10.400;2022-09-20T04:20:16;7.80;99.90
935;DHT22;454;53.254;10.400;2022-09-20T04:22:47;7.90;99.90
935;DHT22;454;53.254;10.400;2022-09-20T04:25:18;7.90;99.90
935;DHT22;454;53.254;10.400;2022-09-20T04:27:50;7.90;99.90
935;DHT22;454;53.254;10.400;2022-09-20T04:30:21;8.00;99.90
935;DHT22;454;53.254;10.400;2022-09-20T04:32:57;8.00;99.90
935;DHT22;454;53.254;10.400;2022-09-20T04:35:34;8.00;99.90
935;DHT22;454;53.254;10.400;2022-09-20T04:38:21;8.00;99.90
935;DHT22;454;53.254;10.400;2022-09-20T04:41:07;8.00;99.90
935;DHT22;454;53.254;10.400;2022-09-20T04:47:12;8.00;99.90
935;DHT22;454;53.254;10.400;2022-09-20T04:50:18;8.00;99.90
935;DHT22;454;53.254;10.400;2022-09-20T04:55:54;8.00;99.90
935;DHT22;454;53.254;10.400;2022-09-20T04:58:35;8.00;99.90
935;DHT22;454;53.254;10.400;2022-09-20T05:01:48;8.00;99.90
935;DHT22;454;53.254;10.400;2022-09-20T05:05:02;8.00;99.90
935;DHT22;454;53.254;10.400;2022-09-20T05:11:20;8.10;99.90
935;DHT22;454;53.254;10.400;2022-09-20T05:14:13;8.00;99.90
935;DHT22;454;53.254;10.400;2022-09-20T05:17:05;8.00;99.90
935;DHT22;454;53.254;10.400;2022-09-20T05:19:43;8.00;99.90
935;DHT22;454;53.254;10.400;2022-09-20T05:22:40;8.10;99.90
935;DHT22;454;53.254;10.400;2022-09-20T05:25:46;8.00;99.90
935;DHT22;454;53.254;10.400;2022-09-20T05:28:21;8.10;99.90
935;DHT22;454;53.254;10.400;2022-09-20T05:30:54;8.10;99.90
935;DHT22;454;53.254;10.400;2022-09-20T05:33:26;8.10;99.90
935;DHT22;454;53.254;10.400;2022-09-20T05:36:03;8.10;99.90
935;DHT22;454;53.254;10.400;2022-09-20T05:38:44;8.10;99.90
935;DHT22;454;53.254;10.400;2022-09-20T05:41:20;8.10;99.90
935;DHT22;454;53.254;10.400;2022-09-20T05:43:53;8.10;99.90
935;DHT22;454;53.254;10.400;2022-09-20T05:46:33;8.20;99.90
935;DHT22;454;53.254;10.400;2022-09-20T05:49:09;8.20;99.90
935;DHT22;454;53.254;10.400;2022-09-20T05:51:50;8.20;99.90
935;DHT22;454;53.254;10.400;2022-09-20T05:54:39;8.20;99.90
935;DHT22;454;53.254;10.400;2022-09-20T05:57:15;8.20;99.90
935;DHT22;454;53.254;10.400;2022-09-20T05:59:57;8.20;99.90
935;DHT22;454;53.254;10.400;2022-09-20T06:02:37;8.30;99.90
935;DHT22;454;53.254;10.400;2022-09-20T06:05:11;8.30;99.90
935;DHT22;454;53.254;10.400;2022-09-20T06:07:55;8.30;99.90
935;DHT22;454;53.254;10.400;2022-09-20T06:10:42;8.30;99.90
935;DHT22;454;53.254;10.400;2022-09-20T06:13:32;8.40;99.90
935;DHT22;454;53.254;10.400;2022-09-20T06:16:03;8.50;99.90
935;DHT22;454;53.254;10.400;2022-09-20T06:18:34;8.50;99.90
935;DHT22;454;53.254;10.400;2022-09-20T06:21:12;8.60;99.90
935;DHT22;454;53.254;10.400;2022-09-20T06:23:42;8.60;99.90
935;DHT22;454;53.254;10.400;2022-09-20T06:26:13;8.60;99.90
935;DHT22;454;53.254;10.400;2022-09-20T06:28:44;8.70;99.90
935;DHT22;454;53.254;10.400;2022-09-20T06:31:13;8.80;99.90
935;DHT22;454;53.254;10.400;2022-09-20T06:33:44;8.80;99.90
935;DHT22;454;53.254;10.400;2022-09-20T06:36:18;8.80;99.90
935;DHT22;454;53.254;10.400;2022-09-20T06:39:11;8.90;99.90
935;DHT22;454;53.254;10.400;2022-09-20T06:41:59;9.00;99.90
935;DHT22;454;53.254;10.400;2022-09-20T06:44:26;9.00;99.90
935;DHT22;454;53.254;10.400;2022-09-20T06:46:54;9.10;99.90
935;DHT22;454;53.254;10.400;2022-09-20T06:49:21;9.10;99.90
935;DHT22;454;53.254;10.400;2022-09-20T06:51:48;9.10;99.90
935;DHT22;454;53.254;10.400;2022-09-20T06:54:17;9.20;99.90
935;DHT22;454;53.254;10.400;2022-09-20T06:56:44;9.20;99.90
935;DHT22;454;53.254;10.400;2022-09-20T06:59:12;9.30;99.90
935;DHT22;454;53.254;10.400;2022-09-20T07:01:40;9.30;99.90
935;DHT22;454;53.254;10.400;2022-09-20T07:04:08;9.40;99.90
935;DHT22;454;53.254;10.400;2022-09-20T07:06:35;9.40;99.90
935;DHT22;454;53.254;10.400;2022-09-20T07:09:02;9.50;99.90
935;DHT22;454;53.254;10.400;2022-09-20T07:11:29;9.50;99.90
935;DHT22;454;53.254;10.400;2022-09-20T07:13:56;9.60;99.90
935;DHT22;454;53.254;10.400;2022-09-20T07:16:23;9.60;99.90
935;DHT22;454;53.254;10.400;2022-09-20T07:18:51;9.60;99.90
935;DHT22;454;53.254;10.400;2022-09-20T07:21:20;9.70;99.90
935;DHT22;454;53.254;10.400;2022-09-20T07:23:47;9.70;99.90
935;DHT22;454;53.254;10.400;2022-09-20T07:26:18;9.80;99.90
935;DHT22;454;53.254;10.400;2022-09-20T07:28:45;9.90;99.90
935;DHT22;454;53.254;10.400;2022-09-20T07:31:13;9.90;99.90
935;DHT22;454;53.254;10.400;2022-09-20T07:33:39;10.00;99.90
935;DHT22;454;53.254;10.400;2022-09-20T07:36:06;10.00;99.90
935;DHT22;454;53.254;10.400;2022-09-20T07:38:34;10.00;99.90
935;DHT22;454;53.254;10.400;2022-09-20T07:41:02;10.10;99.90
935;DHT22;454;53.254;10.400;2022-09-20T07:43:29;10.20;99.90
935;DHT22;454;53.254;10.400;2022-09-20T07:45:56;10.20;99.90
935;DHT22;454;53.254;10.400;2022-09-20T07:48:26;10.30;99.90
935;DHT22;454;53.254;10.400;2022-09-20T07:50:54;10.30;99.90
935;DHT22;454;53.254;10.400;2022-09-20T07:53:21;10.40;99.90
935;DHT22;454;53.254;10.400;2022-09-20T07:55:57;10.50;99.90
935;DHT22;454;53.254;10.400;2022-09-20T07:58:24;10.50;99.90
935;DHT22;454;53.254;10.400;2022-09-20T08:00:52;10.60;99.90
935;DHT22;454;53.254;10.400;2022-09-20T08:03:19;10.70;99.90
935;DHT22;454;53.254;10.400;2022-09-20T08:05:47;10.70;99.90
935;DHT22;454;53.254;10.400;2022-09-20T08:08:14;10.80;99.90
935;DHT22;454;53.254;10.400;2022-09-20T08:10:42;10.80;99.90
935;DHT22;454;53.254;10.400;2022-09-20T08:13:10;10.90;99.90
935;DHT22;454;53.254;10.400;2022-09-20T08:15:37;11.00;99.90
935;DHT22;454;53.254;10.400;2022-09-20T08:18:05;11.00;99.90
935;DHT22;454;53.254;10.400;2022-09-20T08:20:34;11.10;99.90
935;DHT22;454;53.254;10.400;2022-09-20T08:23:02;11.20;99.90
935;DHT22;454;53.254;10.400;2022-09-20T08:25:29;11.30;99.90
935;DHT22;454;53.254;10.400;2022-09-20T08:27:55;11.30;99.90
935;DHT22;454;53.254;10.400;2022-09-20T08:30:23;11.40;99.90
935;DHT22;454;53.254;10.400;2022-09-20T08:32:50;11.40;99.90
935;DHT22;454;53.254;10.400;2022-09-20T08:35:20;11.50;99.90
935;DHT22;454;53.254;10.400;2022-09-20T08:37:50;11.60;99.90
935;DHT22;454;53.254;10.400;2022-09-20T08:40:20;11.70;99.90
935;DHT22;454;53.254;10.400;2022-09-20T08:42:49;11.70;99.90
935;DHT22;454;53.254;10.400;2022-09-20T08:45:20;11.70;99.90
935;DHT22;454;53.254;10.400;2022-09-20T08:47:51;11.80;99.90
935;DHT22;454;53.254;10.400;2022-09-20T08:50:20;11.80;99.90
935;DHT22;454;53.254;10.400;2022-09-20T08:52:48;11.90;99.90
935;DHT22;454;53.254;10.400;2022-09-20T08:55:17;11.90;99.90
935;DHT22;454;53.254;10.400;2022-09-20T08:57:47;12.00;99.90
935;DHT22;454;53.254;10.400;2022-09-20T09:00:16;12.00;99.90
935;DHT22;454;53.254;10.400;2022-09-20T09:02:44;12.10;99.90
935;DHT22;454;53.254;10.400;2022-09-20T09:05:29;12.20;99.90
935;DHT22;454;53.254;10.400;2022-09-20T09:07:57;12.20;99.90
935;DHT22;454;53.254;10.400;2022-09-20T09:10:26;12.30;99.90
935;DHT22;454;53.254;10.400;2022-09-20T09:12:54;12.30;99.90
935;DHT22;454;53.254;10.400;2022-09-20T09:15:26;12.30;99.90
935;DHT22;454;53.254;10.400;2022-09-20T09:17:54;12.40;99.90
935;DHT22;454;53.254;10.400;2022-09-20T09:20:23;12.50;99.90
935;DHT22;454;53.254;10.400;2022-09-20T09:22:58;12.60;99.90
935;DHT22;454;53.254;10.400;2022-09-20T09:25:27;12.60;99.90
935;DHT22;454;53.254;10.400;2022-09-20T09:27:58;12.60;99.90
935;DHT22;454;53.254;10.400;2022-09-20T09:30:27;12.70;99.90
935;DHT22;454;53.254;10.400;2022-09-20T09:33:24;12.80;99.90
935;DHT22;454;53.254;10.400;2022-09-20T09:35:56;12.90;99.90
935;DHT22;454;53.254;10.400;2022-09-20T09:38:25;12.90;99.90
935;DHT22;454;53.254;10.400;2022-09-20T09:40:53;13.00;99.90
935;DHT22;454;53.254;10.400;2022-09-20T09:43:22;13.00;99.90
935;DHT22;454;53.254;10.400;2022-09-20T09:45:52;13.00;99.90
935;DHT22;454;53.254;10.400;2022-09-20T09:48:22;13.10;99.90
935;DHT22;454;53.254;10.400;2022-09-20T09:50:48;13.20;99.90
935;DHT22;454;53.254;10.400;2022-09-20T09:53:21;13.20;99.90
935;DHT22;454;53.254;10.400;2022-09-20T09:58:54;13.30;99.90
935;DHT22;454;53.254;10.400;2022-09-20T10:01:30;13.30;99.90
935;DHT22;454;53.254;10.400;2022-09-20T10:04:06;13.30;99.90
935;DHT22;454;53.254;10.400;2022-09-20T10:06:42;13.40;99.90
935;DHT22;454;53.254;10.400;2022-09-20T10:09:32;13.40;99.90
935;DHT22;454;53.254;10.400;2022-09-20T10:12:20;13.50;99.90
935;DHT22;454;53.254;10.400;2022-09-20T10:15:01;13.50;99.90
935;DHT22;454;53.254;10.400;2022-09-20T10:17:40;13.60;99.90
935;DHT22;454;53.254;10.400;2022-09-20T10:20:20;13.70;99.90
935;DHT22;454;53.254;10.400;2022-09-20T10:23:01;13.80;99.90
935;DHT22;454;53.254;10.400;2022-09-20T10:25:40;13.80;99.90
935;DHT22;454;53.254;10.400;2022-09-20T10:28:18;13.90;99.90
935;DHT22;454;53.254;10.400;2022-09-20T10:30:55;14.00;99.90
935;DHT22;454;53.254;10.400;2022-09-20T10:33:31;14.00;99.90
935;DHT22;454;53.254;10.400;2022-09-20T10:36:14;14.10;99.90
935;DHT22;454;53.254;10.400;2022-09-20T10:38:52;14.10;99.90
935;DHT22;454;53.254;10.400;2022-09-20T10:41:36;14.10;99.90
935;DHT22;454;53.254;10.400;2022-09-20T10:44:39;14.20;99.90
935;DHT22;454;53.254;10.400;2022-09-20T10:47:13;14.30;99.90
935;DHT22;454;53.254;10.400;2022-09-20T10:49:42;14.40;99.90
935;DHT22;454;53.254;10.400;2022-09-20T10:52:30;14.50;99.90
935;DHT22;454;53.254;10.400;2022-09-20T10:55:17;14.60;99.90
935;DHT22;454;53.254;10.400;2022-09-20T10:58:23;14.40;99.90
935;DHT22;454;53.254;10.400;2022-09-20T11:00:59;14.30;99.90
935;DHT22;454;53.254;10.400;2022-09-20T11:03:42;14.30;99.90
935;DHT22;454;53.254;10.400;2022-09-20T11:06:15;14.40;99.90
935;DHT22;454;53.254;10.400;2022-09-20T11:08:47;14.50;99.90
935;DHT22;454;53.254;10.400;2022-09-20T11:11:21;14.50;99.90
935;DHT22;454;53.254;10.400;2022-09-20T11:13:56;14.50;99.90
935;DHT22;454;53.254;10.400;2022-09-20T11:16:28;14.40;99.90
935;DHT22;454;53.254;10.400;2022-09-20T11:19:01;14.50;99.90
935;DHT22;454;53.254;10.400;2022-09-20T11:21:34;14.60;99.90
935;DHT22;454;53.254;10.400;2022-09-20T11:24:09;14.70;99.90
935;DHT22;454;53.254;10.400;2022-09-20T11:26:45;14.80;99.90
935;DHT22;454;53.254;10.400;2022-09-20T11:29:19;14.70;99.90
935;DHT22;454;53.254;10.400;2022-09-20T11:31:52;14.60;99.90
935;DHT22;454;53.254;10.400;2022-09-20T11:34:24;14.50;99.90
935;DHT22;454;53.254;10.400;2022-09-20T11:36:55;14.50;99.90
935;DHT22;454;53.254;10.400;2022-09-20T11:39:27;14.50;99.90
935;DHT22;454;53.254;10.400;2022-09-20T11:41:56;14.50;99.90
935;DHT22;454;53.254;10.400;2022-09-20T11:44:26;14.50;99.90
935;DHT22;454;53.254;10.400;2022-09-20T11:46:56;14.60;99.90
935;DHT22;454;53.254;10.400;2022-09-20T11:49:27;14.60;99.90
935;DHT22;454;53.254;10.400;2022-09-20T11:52:20;14.70;99.90
935;DHT22;454;53.254;10.400;2022-09-20T11:55:10;14.80;99.90
935;DHT22;454;53.254;10.400;2022-09-20T11:57:41;14.70;99.90
935;DHT22;454;53.254;10.400;2022-09-20T12:00:11;14.70;99.90
935;DHT22;454;53.254;10.400;2022-09-20T12:02:45;14.60;99.90
935;DHT22;454;53.254;10.400;2022-09-20T12:05:26;14.70;99.90
935;DHT22;454;53.254;10.400;2022-09-20T12:07:55;14.70;99.90
935;DHT22;454;53.254;10.400;2022-09-20T12:10:25;14.70;99.90
935;DHT22;454;53.254;10.400;2022-09-20T12:12:56;14.80;99.90
935;DHT22;454;53.254;10.400;2022-09-20T12:15:28;14.90;99.90
935;DHT22;454;53.254;10.400;2022-09-20T12:18:13;15.00;99.90
935;DHT22;454;53.254;10.400;2022-09-20T12:21:01;15.10;99.90
935;DHT22;454;53.254;10.400;2022-09-20T12:24:13;15.20;99.90
935;DHT22;454;53.254;10.400;2022-09-20T12:26:47;15.20;99.90
935;DHT22;454;53.254;10.400;2022-09-20T12:32:43;15.50;99.90
935;DHT22;454;53.254;10.400;2022-09-20T12:38:55;15.60;99.90
935;DHT22;454;53.254;10.400;2022-09-20T12:41:23;15.80;99.90
935;DHT22;454;53.254;10.400;2022-09-20T12:44:02;15.90;99.90
935;DHT22;454;53.254;10.400;2022-09-20T12:46:33;16.10;99.90
935;DHT22;454;53.254;10.400;2022-09-20T12:49:26;16.30;99.90
935;DHT22;454;53.254;10.400;2022-09-20T12:52:31;16.50;99.90
935;DHT22;454;53.254;10.400;2022-09-20T12:55:47;16.50;99.90
935;DHT22;454;53.254;10.400;2022-09-20T12:58:26;16.40;99.90
935;DHT22;454;53.254;10.400;2022-09-20T13:01:32;16.20;99.90
935;DHT22;454;53.254;10.400;2022-09-20T13:07:34;15.60;99.90
935;DHT22;454;53.254;10.400;2022-09-20T13:10:13;15.50;99.90
935;DHT22;454;53.254;10.400;2022-09-20T13:12:42;15.50;99.90
935;DHT22;454;53.254;10.400;2022-09-20T13:15:15;15.50;99.90
935;DHT22;454;53.254;10.400;2022-09-20T13:17:43;15.50;99.90
935;DHT22;454;53.254;10.400;2022-09-20T13:20:15;15.50;99.90
935;DHT22;454;53.254;10.400;2022-09-20T13:22:46;15.50;99.90
935;DHT22;454;53.254;10.400;2022-09-20T13:25:15;15.60;99.90
935;DHT22;454;53.254;10.400;2022-09-20T13:27:48;15.60;99.90
935;DHT22;454;53.254;10.400;2022-09-20T13:30:17;15.70;99.90
935;DHT22;454;53.254;10.400;2022-09-20T13:32:45;15.70;99.90
935;DHT22;454;53.254;10.400;2022-09-20T13:35:14;15.70;99.90
935;DHT22;454;53.254;10.400;2022-09-20T13:37:50;15.70;99.90
935;DHT22;454;53.254;10.400;2022-09-20T13:40:19;15.80;99.90
935;DHT22;454;53.254;10.400;2022-09-20T13:42:47;15.80;99.90
935;DHT22;454;53.254;10.400;2022-09-20T13:45:16;15.80;99.90
935;DHT22;454;53.254;10.400;2022-09-20T13:47:47;15.80;99.90
935;DHT22;454;53.254;10.400;2022-09-20T13:50:20;15.80;99.90
935;DHT22;454;53.254;10.400;2022-09-20T13:52:49;15.90;99.90
935;DHT22;454;53.254;10.400;2022-09-20T13:55:31;15.90;99.90
935;DHT22;454;53.254;10.400;2022-09-20T13:58:00;15.90;99.90
935;DHT22;454;53.254;10.400;2022-09-20T14:00:29;16.00;99.90
935;DHT22;454;53.254;10.400;2022-09-20T14:02:57;16.00;99.90
935;DHT22;454;53.254;10.400;2022-09-20T14:05:26;16.00;99.90
935;DHT22;454;53.254;10.400;2022-09-20T14:07:56;15.90;99.90
935;DHT22;454;53.254;10.400;2022-09-20T14:10:32;15.80;99.90
935;DHT22;454;53.254;10.400;2022-09-20T14:13:00;15.60;99.90
935;DHT22;454;53.254;10.400;2022-09-20T14:15:31;15.50;99.90
935;DHT22;454;53.254;10.400;2022-09-20T14:18:00;15.40;99.90
935;DHT22;454;53.254;10.400;2022-09-20T14:20:29;15.30;99.90
935;DHT22;454;53.254;10.400;2022-09-20T14:22:58;15.20;99.90
935;DHT22;454;53.254;10.400;2022-09-20T14:25:26;15.30;99.90
935;DHT22;454;53.254;10.400;2022-09-20T14:28:16;15.30;99.90
935;DHT22;454;53.254;10.400;2022-09-20T14:30:44;15.40;99.90
935;DHT22;454;53.254;10.400;2022-09-20T14:33:15;15.50;99.90
935;DHT22;454;53.254;10.400;2022-09-20T14:35:46;15.50;99.90
935;DHT22;454;53.254;10.400;2022-09-20T14:38:16;15.60;99.90
935;DHT22;454;53.254;10.400;2022-09-20T14:40:46;15.60;99.90
935;DHT22;454;53.254;10.400;2022-09-20T14:43:23;15.70;99.90
935;DHT22;454;53.254;10.400;2022-09-20T14:45:53;15.70;99.90
935;DHT22;454;53.254;10.400;2022-09-20T14:48:31;15.70;99.90
935;DHT22;454;53.254;10.400;2022-09-20T14:51:10;15.70;99.90
935;DHT22;454;53.254;10.400;2022-09-20T14:53:49;15.70;99.90
935;DHT22;454;53.254;10.400;2022-09-20T14:56:25;15.60;99.90
935;DHT22;454;53.254;10.400;2022-09-20T14:59:04;15.60;99.90
935;DHT22;454;53.254;10.400;2022-09-20T15:01:32;15.60;99.90
935;DHT22;454;53.254;10.400;2022-09-20T15:04:05;15.60;99.90
935;DHT22;454;53.254;10.400;2022-09-20T15:06:34;15.60;99.90
935;DHT22;454;53.254;10.400;2022-09-20T15:09:02;15.60;99.90
935;DHT22;454;53.254;10.400;2022-09-20T15:11:29;15.60;99.90
935;DHT22;454;53.254;10.400;2022-09-20T15:13:55;15.60;99.90
935;DHT22;454;53.254;10.400;2022-09-20T15:16:22;15.60;99.90
935;DHT22;454;53.254;10.400;2022-09-20T15:18:49;15.60;99.90
935;DHT22;454;53.254;10.400;2022-09-20T15:21:15;15.60;99.90
935;DHT22;454;53.254;10.400;2022-09-20T15:23:42;15.60;99.90
935;DHT22;454;53.254;10.400;2022-09-20T15:26:11;15.60;99.90
935;DHT22;454;53.254;10.400;2022-09-20T15:28:39;15.60;99.90
935;DHT22;454;53.254;10.400;2022-09-20T15:31:06;15.60;99.90
935;DHT22;454;53.254;10.400;2022-09-20T15:33:33;15.60;99.90
935;DHT22;454;53.254;10.400;2022-09-20T15:36:01;15.60;99.90
935;DHT22;454;53.254;10.400;2022-09-20T15:38:30;15.50;99.90
935;DHT22;454;53.254;10.400;2022-09-20T15:40:59;15.50;99.90
935;DHT22;454;53.254;10.400;2022-09-20T15:43:29;15.50;99.90
935;DHT22;454;53.254;10.400;2022-09-20T15:45:57;15.50;99.90
935;DHT22;454;53.254;10.400;2022-09-20T15:48:27;15.40;99.90
935;DHT22;454;53.254;10.400;2022-09-20T15:51:02;15.40;99.90
935;DHT22;454;53.254;10.400;2022-09-20T15:53:31;15.40;99.90
935;DHT22;454;53.254;10.400;2022-09-20T15:55:58;15.40;99.90
935;DHT22;454;53.254;10.400;2022-09-20T15:58:29;15.40;99.90
935;DHT22;454;53.254;10.400;2022-09-20T16:01:01;15.30;99.90
935;DHT22;454;53.254;10.400;2022-09-20T16:03:29;15.30;99.90
935;DHT22;454;53.254;10.400;2022-09-20T16:05:57;15.30;99.90
935;DHT22;454;53.254;10.400;2022-09-20T16:08:25;15.30;99.90
935;DHT22;454;53.254;10.400;2022-09-20T16:10:55;15.30;99.90
935;DHT22;454;53.254;10.400;2022-09-20T16:13:22;15.20;99.90
935;DHT22;454;53.254;10.400;2022-09-20T16:15:54;15.20;99.90
935;DHT22;454;53.254;10.400;2022-09-20T16:18:21;15.10;99.90
935;DHT22;454;53.254;10.400;2022-09-20T16:21:07;15.10;99.90
935;DHT22;454;53.254;10.400;2022-09-20T16:23:33;15.10;99.90
935;DHT22;454;53.254;10.400;2022-09-20T16:26:01;15.00;99.90
935;DHT22;454;53.254;10.400;2022-09-20T16:28:28;15.00;99.90
935;DHT22;454;53.254;10.400;2022-09-20T16:30:57;14.90;99.90
935;DHT22;454;53.254;10.400;2022-09-20T16:33:24;14.90;99.90
935;DHT22;454;53.254;10.400;2022-09-20T16:35:51;14.80;99.90
935;DHT22;454;53.254;10.400;2022-09-20T16:38:18;14.80;99.90
935;DHT22;454;53.254;10.400;2022-09-20T16:40:47;14.70;99.90
935;DHT22;454;53.254;10.400;2022-09-20T16:43:14;14.70;99.90
935;DHT22;454;53.254;10.400;2022-09-20T16:45:58;14.60;99.90
935;DHT22;454;53.254;10.400;2022-09-20T16:48:26;14.60;99.90
935;DHT22;454;53.254;10.400;2022-09-20T16:50:56;14.50;99.90
935;DHT22;454;53.254;10.400;2022-09-20T16:53:25;14.40;99.90
935;DHT22;454;53.254;10.400;2022-09-20T16:55:52;14.30;99.90
935;DHT22;454;53.254;10.400;2022-09-20T16:58:25;14.20;99.90
935;DHT22;454;53.254;10.400;2022-09-20T17:00:53;14.10;99.90
935;DHT22;454;53.254;10.400;2022-09-20T17:03:21;14.00;99.90
935;DHT22;454;53.254;10.400;2022-09-20T17:05:51;13.90;99.90
935;DHT22;454;53.254;10.400;2022-09-20T17:08:18;13.80;99.90
935;DHT22;454;53.254;10.400;2022-09-20T17:10:45;13.70;99.90
935;DHT22;454;53.254;10.400;2022-09-20T17:13:13;13.70;99.90
935;DHT22;454;53.254;10.400;2022-09-20T17:15:40;13.60;99.90
935;DHT22;454;53.254;10.400;2022-09-20T17:18:07;13.40;99.90
935;DHT22;454;53.254;10.400;2022-09-20T17:20:35;13.40;99.90
935;DHT22;454;53.254;10.400;2022-09-20T17:23:04;13.30;99.90
935;DHT22;454;53.254;10.400;2022-09-20T17:25:33;13.20;99.90
935;DHT22;454;53.254;10.400;2022-09-20T17:28:00;13.10;99.90
935;DHT22;454;53.254;10.400;2022-09-20T17:30:27;13.00;99.90
935;DHT22;454;53.254;10.400;2022-09-20T17:32:54;12.90;99.90
935;DHT22;454;53.254;10.400;2022-09-20T17:35:21;12.80;99.90
935;DHT22;454;53.254;10.400;2022-09-20T17:37:49;12.80;99.90
935;DHT22;454;53.254;10.400;2022-09-20T17:40:16;12.70;99.90
935;DHT22;454;53.254;10.400;2022-09-20T17:42:42;12.60;99.90
935;DHT22;454;53.254;10.400;2022-09-20T17:45:10;12.50;99.90
935;DHT22;454;53.254;10.400;2022-09-20T17:47:37;12.40;99.90
935;DHT22;454;53.254;10.400;2022-09-20T17:50:06;12.40;99.90
935;DHT22;454;53.254;10.400;2022-09-20T17:52:39;12.40;99.90
935;DHT22;454;53.254;10.400;2022-09-20T17:55:08;12.30;99.90
935;DHT22;454;53.254;10.400;2022-09-20T17:57:35;12.20;99.90
935;DHT22;454;53.254;10.400;2022-09-20T18:00:02;12.10;99.90
935;DHT22;454;53.254;10.400;2022-09-20T18:02:30;12.10;99.90
935;DHT22;454;53.254;10.400;2022-09-20T18:04:56;12.00;99.90
935;DHT22;454;53.254;10.400;2022-09-20T18:07:23;11.90;99.90
935;DHT22;454;53.254;10.400;2022-09-20T18:09:50;11.90;99.90
935;DHT22;454;53.254;10.400;2022-09-20T18:12:18;11.80;99.90
935;DHT22;454;53.254;10.400;2022-09-20T18:14:45;11.80;99.90
935;DHT22;454;53.254;10.400;2022-09-20T18:17:12;11.70;99.90
935;DHT22;454;53.254;10.400;2022-09-20T18:19:39;11.70;99.90
935;DHT22;454;53.254;10.400;2022-09-20T18:22:07;11.60;99.90
935;DHT22;454;53.254;10.400;2022-09-20T18:24:34;11.50;99.90
935;DHT22;454;53.254;10.400;2022-09-20T18:27:01;11.50;99.90
935;DHT22;454;53.254;10.400;2022-09-20T18:29:30;11.40;99.90
935;DHT22;454;53.254;10.400;2022-09-20T18:32:01;11.40;99.90
935;DHT22;454;53.254;10.400;2022-09-20T18:34:28;11.40;99.90
935;DHT22;454;53.254;10.400;2022-09-20T18:36:58;11.40;99.90
935;DHT22;454;53.254;10.400;2022-09-20T18:39:27;11.30;99.90
935;DHT22;454;53.254;10.400;2022-09-20T18:41:54;11.30;99.90
935;DHT22;454;53.254;10.400;2022-09-20T18:44:22;11.20;99.90
935;DHT22;454;53.254;10.400;2022-09-20T18:46:51;11.20;99.90
935;DHT22;454;53.254;10.400;2022-09-20T18:49:19;11.10;99.90
935;DHT22;454;53.254;10.400;2022-09-20T18:51:47;11.10;99.90
935;DHT22;454;53.254;10.400;2022-09-20T18:54:14;11.10;99.90
935;DHT22;454;53.254;10.400;2022-09-20T18:56:42;11.00;99.90
935;DHT22;454;53.254;10.400;2022-09-20T18:59:14;11.00;99.90
935;DHT22;454;53.254;10.400;2022-09-20T19:01:57;10.90;99.90
935;DHT22;454;53.254;10.400;2022-09-20T19:04:47;10.90;99.90
935;DHT22;454;53.254;10.400;2022-09-20T19:07:21;10.80;99.90
935;DHT22;454;53.254;10.400;2022-09-20T19:09:55;10.80;99.90
935;DHT22;454;53.254;10.400;2022-09-20T19:12:29;10.70;99.90
935;DHT22;454;53.254;10.400;2022-09-20T19:18:00;10.60;99.90
935;DHT22;454;53.254;10.400;2022-09-20T19:20:35;10.60;99.90
935;DHT22;454;53.254;10.400;2022-09-20T19:23:12;10.60;99.90
935;DHT22;454;53.254;10.400;2022-09-20T19:25:46;10.60;99.90
935;DHT22;454;53.254;10.400;2022-09-20T19:28:14;10.60;99.90
935;DHT22;454;53.254;10.400;2022-09-20T19:30:41;10.50;99.90
935;DHT22;454;53.254;10.400;2022-09-20T19:33:16;10.60;99.90
935;DHT22;454;53.254;10.400;2022-09-20T19:35:47;10.50;99.90
935;DHT22;454;53.254;10.400;2022-09-20T19:38:23;10.50;99.90
935;DHT22;454;53.254;10.400;2022-09-20T19:40:58;10.50;99.90
935;DHT22;454;53.254;10.400;2022-09-20T19:43:45;10.50;99.90
935;DHT22;454;53.254;10.400;2022-09-20T19:46:34;10.40;99.90
935;DHT22;454;53.254;10.400;2022-09-20T19:49:07;10.40;99.90
935;DHT22;454;53.254;10.400;2022-09-20T19:51:40;10.30;99.90
935;DHT22;454;53.254;10.400;2022-09-20T19:54:09;10.30;99.90
935;DHT22;454;53.254;10.400;2022-09-20T19:56:44;10.20;99.90
935;DHT22;454;53.254;10.400;2022-09-20T19:59:11;10.20;99.90
935;DHT22;454;53.254;10.400;2022-09-20T20:01:39;10.20;99.90
935;DHT22;454;53.254;10.400;2022-09-20T20:04:08;10.20;99.90
935;DHT22;454;53.254;10.400;2022-09-20T20:06:40;10.10;99.90
935;DHT22;454;53.254;10.400;2022-09-20T20:09:11;10.10;99.90
935;DHT22;454;53.254;10.400;2022-09-20T20:11:47;10.10;99.90
935;DHT22;454;53.254;10.400;2022-09-20T20:14:19;10.10;99.90
935;DHT22;454;53.254;10.400;2022-09-20T20:16:59;10.10;99.90
935;DHT22;454;53.254;10.400;2022-09-20T20:19:36;10.00;99.90
935;DHT22;454;53.254;10.400;2022-09-20T20:22:13;10.00;99.90
935;DHT22;454;53.254;10.400;2022-09-20T20:24:45;10.00;99.90
935;DHT22;454;53.254;10.400;2022-09-20T20:27:15;10.00;99.90
935;DHT22;454;53.254;10.400;2022-09-20T20:29:42;9.90;99.90
935;DHT22;454;53.254;10.400;2022-09-20T20:32:09;9.90;99.90
935;DHT22;454;53.254;10.400;2022-09-20T20:34:37;9.80;99.90
935;DHT22;454;53.254;10.400;2022-09-20T20:37:04;9.80;99.90
935;DHT22;454;53.254;10.400;2022-09-20T20:39:32;9.80;99.90
935;DHT22;454;53.254;10.400;2022-09-20T20:41:59;9.80;99.90
935;DHT22;454;53.254;10.400;2022-09-20T20:44:27;9.70;99.90
935;DHT22;454;53.254;10.400;2022-09-20T20:46:54;9.70;99.90
935;DHT22;454;53.254;10.400;2022-09-20T20:49:20;9.70;99.90
935;DHT22;454;53.254;10.400;2022-09-20T20:51:48;9.70;99.90
935;DHT22;454;53.254;10.400;2022-09-20T20:54:15;9.60;99.90
935;DHT22;454;53.254;10.400;2022-09-20T20:56:42;9.60;99.90
935;DHT22;454;53.254;10.400;2022-09-20T20:59:08;9.60;99.90
